Time;durP1;ratioP1;P1;durP2;ratioP2;P2;SDS_P1;SDS_P2;PMS_P1;PMS_P2;Temp;Humidity;BMP_temperature;BMP_pressure;BME280_temperature;BME280_humidity;BME280_pressure;Samples;Min_cycle;Max_cycle;Signal;HPM_P1;HPM_P2
2023/03/13 00:00:50;;;;;;;19.13;4.33;;;8.00;99.90;;;;;;4998383;28;20216;-83
2023/03/13 00:03:17;;;;;;;21.87;4.57;;;8.10;99.90;;;;;;5007582;28;20655;-82
2023/03/13 00:05:44;;;;;;;16.70;4.07;;;8.10;99.90;;;;;;5012503;28;20205;-82
2023/03/13 00:08:11;;;;;;;18.07;4.60;;;8.20;99.90;;;;;;4993757;28;20205;-84
2023/03/13 00:10:39;;;;;;;18.63;4.40;;;8.20;99.90;;;;;;5000117;28;20223;-82
2023/03/13 00:13:07;;;;;;;22.47;4.87;;;8.20;99.90;;;;;;5013613;28;20215;-84
2023/03/13 00:15:34;;;;;;;16.97;4.07;;;8.40;99.90;;;;;;5015006;28;20667;-82
2023/03/13 00:18:00;;;;;;;18.40;4.20;;;8.30;99.90;;;;;;5013755;28;20602;-84
2023/03/13 00:20:27;;;;;;;22.67;4.77;;;8.20;99.90;;;;;;5014520;28;20226;-83
2023/03/13 00:22:54;;;;;;;14.57;5.07;;;8.20;99.90;;;;;;5015200;28;20224;-82
2023/03/13 00:25:21;;;;;;;18.97;3.77;;;8.10;99.90;;;;;;5016436;28;20222;-82
2023/03/13 00:27:49;;;;;;;14.77;4.03;;;8.30;99.90;;;;;;5011148;28;20209;-82
2023/03/13 00:30:16;;;;;;;18.17;3.80;;;8.40;99.90;;;;;;5014778;28;20209;-84
2023/03/13 00:32:44;;;;;;;15.80;4.57;;;8.40;99.90;;;;;;5014585;28;20215;-84
2023/03/13 00:35:12;;;;;;;16.07;3.93;;;8.30;99.90;;;;;;5014849;28;20633;-85
2023/03/13 00:37:39;;;;;;;18.33;4.27;;;8.20;99.90;;;;;;5006819;28;20577;-84
2023/03/13 00:40:07;;;;;;;14.97;4.20;;;8.30;99.90;;;;;;5004182;28;20208;-84
2023/03/13 00:42:35;;;;;;;12.30;3.73;;;8.20;99.90;;;;;;5006963;28;20216;-83
2023/03/13 00:45:03;;;;;;;13.33;3.27;;;8.10;99.90;;;;;;5011851;28;20213;-82
2023/03/13 00:47:30;;;;;;;14.07;3.70;;;8.10;99.90;;;;;;4996522;28;20193;-83
2023/03/13 00:49:57;;;;;;;20.93;4.27;;;8.00;99.90;;;;;;4995836;28;20207;-83
2023/03/13 00:52:26;;;;;;;18.90;5.20;;;8.00;99.90;;;;;;4999081;28;20221;-82
2023/03/13 00:54:54;;;;;;;17.37;4.13;;;7.90;99.90;;;;;;5011475;28;20224;-83
2023/03/13 00:57:21;;;;;;;18.13;4.50;;;7.90;99.90;;;;;;4998612;28;20204;-82
2023/03/13 00:59:47;;;;;;;21.80;4.10;;;8.00;99.90;;;;;;5012328;28;20212;-82
2023/03/13 01:02:16;;;;;;;17.50;4.30;;;7.80;99.90;;;;;;5017151;28;20603;-84
2023/03/13 01:04:43;;;;;;;13.30;3.87;;;8.00;99.90;;;;;;5011452;28;20287;-83
2023/03/13 01:07:09;;;;;;;16.50;3.93;;;8.20;99.90;;;;;;5013603;28;20200;-83
2023/03/13 01:09:36;;;;;;;17.20;4.43;;;8.00;99.90;;;;;;5012358;28;20200;-84
2023/03/13 01:12:03;;;;;;;18.67;4.13;;;8.10;99.90;;;;;;5003650;28;20593;-82
2023/03/13 01:14:30;;;;;;;15.27;3.93;;;8.30;99.90;;;;;;5008847;28;20660;-83
2023/03/13 01:16:57;;;;;;;16.43;4.33;;;8.10;99.90;;;;;;5012808;28;20205;-82
2023/03/13 01:19:25;;;;;;;16.13;4.23;;;8.20;99.90;;;;;;5014893;28;20207;-84
2023/03/13 01:21:52;;;;;;;15.17;4.40;;;8.40;99.90;;;;;;5012077;28;20227;-84
2023/03/13 01:24:19;;;;;;;18.30;4.33;;;8.40;99.90;;;;;;4994814;28;20201;-83
2023/03/13 01:26:45;;;;;;;17.20;4.03;;;8.20;99.90;;;;;;5003984;28;20209;-83
2023/03/13 01:29:12;;;;;;;15.80;3.40;;;8.50;99.90;;;;;;5004503;28;20227;-85
2023/03/13 01:31:39;;;;;;;21.13;4.60;;;8.60;99.90;;;;;;5003818;28;20216;-83
2023/03/13 01:34:07;;;;;;;17.07;4.07;;;8.60;99.90;;;;;;5007381;28;20739;-83
2023/03/13 01:36:36;;;;;;;18.10;3.83;;;8.50;99.90;;;;;;5008685;28;20661;-82
2023/03/13 01:39:03;;;;;;;16.77;3.50;;;8.70;99.90;;;;;;5004080;28;20291;-84
2023/03/13 01:41:31;;;;;;;14.00;4.17;;;8.60;99.90;;;;;;5005933;28;20694;-83
2023/03/13 01:43:58;;;;;;;15.20;3.77;;;8.60;99.90;;;;;;5012740;28;20205;-83
2023/03/13 01:46:26;;;;;;;14.53;3.50;;;8.60;99.90;;;;;;5021788;28;20669;-83
2023/03/13 01:48:57;;;;;;;15.97;3.97;;;8.50;99.90;;;;;;5018790;28;20208;-83
2023/03/13 01:51:27;;;;;;;15.13;4.23;;;8.50;99.90;;;;;;5008538;28;20641;-84
2023/03/13 01:54:01;;;;;;;19.47;4.20;;;8.50;99.90;;;;;;5008396;28;20206;-83
2023/03/13 01:56:36;;;;;;;21.37;4.43;;;8.50;99.90;;;;;;5017703;28;20672;-83
2023/03/13 01:59:05;;;;;;;15.60;3.43;;;8.60;99.90;;;;;;5014616;28;20212;-84
2023/03/13 02:01:32;;;;;;;16.00;3.90;;;8.70;99.90;;;;;;5009462;28;20232;-85
2023/03/13 02:04:00;;;;;;;17.47;4.00;;;8.60;99.90;;;;;;5011542;28;20216;-83
2023/03/13 02:06:30;;;;;;;14.50;3.80;;;8.50;99.90;;;;;;5013634;28;20212;-84
2023/03/13 02:09:03;;;;;;;19.43;4.10;;;8.50;99.90;;;;;;5004928;28;20628;-85
2023/03/13 02:11:40;;;;;;;13.83;3.97;;;8.30;99.90;;;;;;5011524;28;20224;-83
2023/03/13 02:14:08;;;;;;;15.70;3.10;;;8.40;99.90;;;;;;5000134;28;20209;-83
2023/03/13 02:16:35;;;;;;;20.17;5.03;;;8.30;99.90;;;;;;5012977;28;20295;-83
2023/03/13 02:19:06;;;;;;;13.37;3.80;;;8.30;99.90;;;;;;5013871;28;20226;-83
2023/03/13 02:21:41;;;;;;;20.40;4.23;;;8.20;99.90;;;;;;5035890;28;20215;-84
2023/03/13 02:24:20;;;;;;;20.27;4.87;;;8.30;99.90;;;;;;5013905;28;20208;-83
2023/03/13 02:26:48;;;;;;;19.47;4.30;;;8.30;99.90;;;;;;5016780;28;20204;-83
2023/03/13 02:29:18;;;;;;;15.53;3.77;;;8.10;99.90;;;;;;5018028;28;20220;-83
2023/03/13 02:31:46;;;;;;;14.43;3.60;;;8.10;99.90;;;;;;5000923;28;20237;-83
2023/03/13 02:34:17;;;;;;;12.87;3.40;;;8.20;99.90;;;;;;5020919;28;20223;-83
2023/03/13 02:36:46;;;;;;;16.93;4.07;;;8.10;99.90;;;;;;5020740;28;20208;-84
2023/03/13 02:39:15;;;;;;;17.63;3.93;;;8.10;99.90;;;;;;5018025;28;20291;-83
2023/03/13 02:41:44;;;;;;;17.13;3.60;;;8.10;99.90;;;;;;5005202;28;20231;-83
2023/03/13 02:44:12;;;;;;;19.20;3.80;;;8.00;99.90;;;;;;5018484;28;20218;-84
2023/03/13 02:46:49;;;;;;;21.03;4.20;;;8.00;99.90;;;;;;5017707;28;20201;-84
2023/03/13 02:49:26;;;;;;;16.40;3.30;;;8.10;99.90;;;;;;5020087;28;20208;-84
2023/03/13 02:51:55;;;;;;;15.97;3.73;;;8.20;99.90;;;;;;5017328;28;20456;-84
2023/03/13 02:54:26;;;;;;;14.37;3.20;;;8.10;99.90;;;;;;5015632;28;20621;-84
2023/03/13 02:56:57;;;;;;;16.03;3.87;;;8.00;99.90;;;;;;5000096;28;20201;-83
2023/03/13 02:59:26;;;;;;;12.20;3.17;;;8.00;99.90;;;;;;5015713;28;20212;-84
2023/03/13 03:01:53;;;;;;;19.57;4.27;;;8.10;99.90;;;;;;5021981;28;20230;-83
2023/03/13 03:04:20;;;;;;;16.30;4.13;;;8.10;99.90;;;;;;5023589;28;20223;-84
2023/03/13 03:06:48;;;;;;;12.30;3.87;;;8.30;99.90;;;;;;5019178;28;20266;-84
2023/03/13 03:09:14;;;;;;;16.20;4.00;;;8.20;99.90;;;;;;5017659;28;20653;-84
2023/03/13 03:11:41;;;;;;;12.73;3.63;;;8.40;99.90;;;;;;5018378;28;20251;-84
2023/03/13 03:14:09;;;;;;;12.47;3.67;;;8.40;99.90;;;;;;5013729;28;20200;-83
2023/03/13 03:16:37;;;;;;;12.13;3.43;;;8.70;99.90;;;;;;5005387;28;20209;-84
2023/03/13 03:19:05;;;;;;;15.93;4.07;;;8.60;99.90;;;;;;5008112;28;20683;-83
2023/03/13 03:21:32;;;;;;;17.20;4.03;;;8.60;99.90;;;;;;5003410;28;20240;-83
2023/03/13 03:23:59;;;;;;;17.83;3.33;;;8.80;99.90;;;;;;5019721;28;20220;-83
2023/03/13 03:26:26;;;;;;;15.87;3.60;;;8.80;99.90;;;;;;5010527;28;20207;-84
2023/03/13 03:28:52;;;;;;;13.50;3.73;;;8.70;99.90;;;;;;5009830;28;20367;-83
2023/03/13 03:31:19;;;;;;;16.63;3.93;;;8.60;99.90;;;;;;5012242;28;20983;-84
2023/03/13 03:33:47;;;;;;;15.40;3.97;;;8.50;99.90;;;;;;5000073;28;20207;-84
2023/03/13 03:36:17;;;;;;;16.73;4.90;;;8.60;99.90;;;;;;5016379;28;20207;-84
2023/03/13 03:38:44;;;;;;;15.37;3.70;;;8.60;99.90;;;;;;5010902;28;20649;-83
2023/03/13 03:41:13;;;;;;;16.50;3.90;;;8.40;99.90;;;;;;5005817;28;20252;-84
2023/03/13 03:43:40;;;;;;;20.97;4.73;;;8.40;99.90;;;;;;5018892;28;20232;-84
2023/03/13 03:46:07;;;;;;;16.13;4.00;;;8.30;99.90;;;;;;5032064;28;20208;-84
2023/03/13 03:48:34;;;;;;;17.10;3.93;;;8.20;99.90;;;;;;5014303;28;20672;-84
2023/03/13 03:51:03;;;;;;;16.93;4.30;;;8.10;99.90;;;;;;4998593;28;20225;-83
2023/03/13 03:53:31;;;;;;;15.47;4.83;;;8.10;99.90;;;;;;5006315;28;20212;-83
2023/03/13 03:55:58;;;;;;;14.37;3.53;;;8.10;99.90;;;;;;5012659;28;20200;-84
2023/03/13 03:58:24;;;;;;;15.93;3.97;;;8.20;99.90;;;;;;4998629;28;20247;-84
2023/03/13 04:00:51;;;;;;;14.30;4.27;;;8.20;99.90;;;;;;5008302;28;20220;-83
2023/03/13 04:03:18;;;;;;;15.30;3.97;;;8.40;99.90;;;;;;5012555;28;20224;-82
2023/03/13 04:05:45;;;;;;;20.33;4.03;;;8.60;99.90;;;;;;5011917;28;20203;-84
2023/03/13 04:08:13;;;;;;;17.83;3.63;;;8.60;99.90;;;;;;5009528;28;20658;-82
2023/03/13 04:10:40;;;;;;;18.27;4.13;;;8.70;99.90;;;;;;5011253;28;20303;-83
2023/03/13 04:13:07;;;;;;;12.30;3.23;;;8.60;99.90;;;;;;5015864;28;20208;-84
2023/03/13 04:15:33;;;;;;;17.73;3.37;;;8.70;99.90;;;;;;5013588;28;20200;-83
2023/03/13 04:18:00;;;;;;;15.00;3.37;;;8.60;99.90;;;;;;5018713;28;20279;-80
2023/03/13 04:20:28;;;;;;;16.10;3.73;;;8.70;99.90;;;;;;5018019;28;20224;-84
2023/03/13 04:22:55;;;;;;;13.10;3.53;;;8.80;99.90;;;;;;5019061;28;20223;-84
2023/03/13 04:25:23;;;;;;;13.40;3.77;;;8.80;99.90;;;;;;5004747;28;20589;-83
2023/03/13 04:27:50;;;;;;;17.73;3.20;;;8.70;99.90;;;;;;4999974;28;20211;-84
2023/03/13 04:30:17;;;;;;;17.70;3.90;;;8.70;99.90;;;;;;5005887;28;20691;-83
2023/03/13 04:32:44;;;;;;;13.93;2.93;;;8.70;99.90;;;;;;5002728;28;20287;-84
2023/03/13 04:35:10;;;;;;;12.60;4.27;;;8.70;99.90;;;;;;4999860;28;20205;-81
2023/03/13 04:37:37;;;;;;;19.93;3.60;;;8.60;99.90;;;;;;5012237;28;20764;-84
2023/03/13 04:40:05;;;;;;;21.20;4.47;;;8.50;99.90;;;;;;5015767;28;20210;-84
2023/03/13 04:42:34;;;;;;;14.33;4.10;;;8.40;99.90;;;;;;5016782;28;20688;-84
2023/03/13 04:45:00;;;;;;;14.20;3.33;;;8.30;99.90;;;;;;5017801;28;20208;-84
2023/03/13 04:47:27;;;;;;;11.70;3.60;;;8.30;99.90;;;;;;5009951;28;20211;-84
2023/03/13 04:49:54;;;;;;;14.40;3.30;;;8.30;99.90;;;;;;5014730;28;20208;-84
2023/03/13 04:52:21;;;;;;;14.53;3.97;;;8.20;99.90;;;;;;5015324;28;20288;-84
2023/03/13 04:54:49;;;;;;;11.87;3.13;;;8.20;99.90;;;;;;5026544;28;20213;-85
2023/03/13 04:57:16;;;;;;;10.43;2.93;;;8.30;99.90;;;;;;5016238;28;20230;-84
2023/03/13 04:59:44;;;;;;;13.13;3.90;;;8.10;99.90;;;;;;5016201;28;20231;-83
2023/03/13 05:02:12;;;;;;;15.57;4.00;;;8.20;99.90;;;;;;5015454;28;20256;-84
2023/03/13 05:04:39;;;;;;;13.73;3.43;;;8.20;99.90;;;;;;5014476;28;20214;-84
2023/03/13 05:07:06;;;;;;;10.53;2.87;;;8.20;99.90;;;;;;5015717;28;20200;-85
2023/03/13 05:09:33;;;;;;;13.17;3.10;;;8.30;99.90;;;;;;5015489;28;20240;-83
2023/03/13 05:12:00;;;;;;;12.03;3.53;;;8.30;99.90;;;;;;5016358;28;20236;-84
2023/03/13 05:14:27;;;;;;;13.07;3.37;;;8.40;99.90;;;;;;5015739;28;20208;-84
2023/03/13 05:16:55;;;;;;;10.13;2.90;;;8.30;99.90;;;;;;5015907;28;20208;-84
2023/03/13 05:19:24;;;;;;;14.00;2.70;;;8.20;99.90;;;;;;5016623;28;20625;-84
2023/03/13 05:21:51;;;;;;;13.60;3.63;;;8.30;99.90;;;;;;5016972;28;20220;-84
2023/03/13 05:24:18;;;;;;;11.80;3.00;;;8.30;99.90;;;;;;5015887;28;20228;-84
2023/03/13 05:26:45;;;;;;;13.30;2.70;;;8.30;99.90;;;;;;5005932;28;20209;-84
2023/03/13 05:29:11;;;;;;;13.23;3.50;;;8.30;99.90;;;;;;5003041;28;20224;-84
2023/03/13 05:31:38;;;;;;;14.27;2.97;;;8.20;99.90;;;;;;4998112;28;20223;-84
2023/03/13 05:34:06;;;;;;;9.07;3.00;;;8.40;99.90;;;;;;4999121;28;20223;-83
2023/03/13 05:36:33;;;;;;;10.40;2.60;;;8.40;99.90;;;;;;4997347;28;20209;-84
2023/03/13 05:39:00;;;;;;;8.63;2.73;;;8.50;99.90;;;;;;4999906;28;20287;-83
2023/03/13 05:41:27;;;;;;;7.33;2.97;;;8.50;99.90;;;;;;4997196;28;20581;-82
2023/03/13 05:43:53;;;;;;;9.70;2.60;;;8.50;99.90;;;;;;4998580;28;20235;-83
2023/03/13 05:46:20;;;;;;;9.67;3.60;;;8.50;99.90;;;;;;5000417;28;20201;-83
2023/03/13 05:48:47;;;;;;;10.30;3.03;;;8.50;99.90;;;;;;4999561;28;20299;-83
2023/03/13 05:51:15;;;;;;;13.03;3.30;;;8.60;99.90;;;;;;4998936;28;20229;-83
2023/03/13 05:53:42;;;;;;;13.97;3.10;;;8.60;99.90;;;;;;4996818;28;20203;-83
2023/03/13 05:56:09;;;;;;;11.77;2.70;;;8.60;99.90;;;;;;4999431;28;20284;-84
2023/03/13 05:58:35;;;;;;;8.37;2.43;;;8.60;99.90;;;;;;4999367;28;20684;-83
2023/03/13 06:01:07;;;;;;;8.50;2.70;;;8.70;99.90;;;;;;4999299;28;20304;-83
2023/03/13 06:03:34;;;;;;;9.73;2.73;;;8.70;99.90;;;;;;4998635;28;20217;-83
2023/03/13 06:06:01;;;;;;;8.67;3.03;;;8.80;99.90;;;;;;4998935;28;20284;-83
2023/03/13 06:08:29;;;;;;;9.63;2.87;;;8.80;99.90;;;;;;4997915;28;20227;-84
2023/03/13 06:10:59;;;;;;;12.93;2.67;;;8.80;99.90;;;;;;4998747;28;20233;-83
2023/03/13 06:13:26;;;;;;;9.27;2.40;;;9.00;99.90;;;;;;4997619;28;20267;-83
2023/03/13 06:15:54;;;;;;;8.60;2.50;;;9.00;99.90;;;;;;4997314;28;20205;-83
2023/03/13 06:18:21;;;;;;;4.67;2.40;;;9.00;99.90;;;;;;4996853;28;20217;-84
2023/03/13 06:20:48;;;;;;;9.37;2.23;;;8.90;99.90;;;;;;4999044;28;20233;-84
2023/03/13 06:23:15;;;;;;;8.27;2.80;;;9.00;99.90;;;;;;5001204;28;20600;-84
2023/03/13 06:25:47;;;;;;;9.73;2.30;;;9.00;99.90;;;;;;5000970;28;20207;-83
2023/03/13 06:28:14;;;;;;;7.93;2.20;;;8.90;99.90;;;;;;5001542;28;20291;-84
2023/03/13 06:30:41;;;;;;;9.90;2.97;;;9.00;99.90;;;;;;5002079;28;20689;-84
2023/03/13 06:33:08;;;;;;;5.83;2.23;;;9.00;99.90;;;;;;5001969;28;20220;-83
2023/03/13 06:35:35;;;;;;;8.60;2.50;;;8.90;99.90;;;;;;5002012;28;20240;-83
2023/03/13 06:38:01;;;;;;;7.33;2.10;;;8.90;99.90;;;;;;5002093;28;20665;-84
2023/03/13 06:40:28;;;;;;;9.80;2.50;;;8.90;99.90;;;;;;5002721;28;20696;-84
2023/03/13 06:42:56;;;;;;;6.87;2.37;;;8.90;99.90;;;;;;5002063;28;20205;-84
2023/03/13 06:45:23;;;;;;;7.57;2.40;;;9.00;99.90;;;;;;5002202;28;20209;-84
2023/03/13 06:47:51;;;;;;;5.43;2.37;;;9.10;99.90;;;;;;5002020;28;20218;-83
2023/03/13 06:50:18;;;;;;;5.50;1.80;;;9.20;99.90;;;;;;5002146;28;20213;-84
2023/03/13 06:52:46;;;;;;;8.33;2.03;;;9.20;99.90;;;;;;5002067;28;20212;-83
2023/03/13 06:55:13;;;;;;;8.57;2.60;;;9.30;99.90;;;;;;5002355;28;20557;-83
2023/03/13 06:57:40;;;;;;;6.33;1.97;;;9.40;99.90;;;;;;5000859;28;20216;-83
2023/03/13 07:00:11;;;;;;;6.83;1.70;;;9.40;99.90;;;;;;5001281;28;20216;-83
2023/03/13 07:02:38;;;;;;;2.47;1.60;;;9.50;99.90;;;;;;5032815;28;20214;-83
2023/03/13 07:05:06;;;;;;;4.13;1.90;;;9.40;99.90;;;;;;5035359;28;20221;-84
2023/03/13 07:07:34;;;;;;;5.63;2.10;;;9.40;99.90;;;;;;5017017;28;20215;-84
2023/03/13 07:10:00;;;;;;;6.60;1.93;;;9.30;99.90;;;;;;5036693;28;20295;-84
2023/03/13 07:12:27;;;;;;;3.60;1.60;;;9.40;99.90;;;;;;5033581;28;20227;-84
2023/03/13 07:14:54;;;;;;;5.03;2.83;;;9.50;99.90;;;;;;5020216;28;20269;-83
2023/03/13 07:17:22;;;;;;;7.10;2.00;;;9.50;99.90;;;;;;5034073;28;20267;-85
2023/03/13 07:19:49;;;;;;;4.93;1.70;;;9.60;99.90;;;;;;5038599;28;20286;-86
2023/03/13 07:22:16;;;;;;;1.90;1.30;;;9.70;99.90;;;;;;5021555;28;20238;-84
2023/03/13 07:24:43;;;;;;;4.90;1.83;;;9.80;99.90;;;;;;5019833;28;20232;-83
2023/03/13 07:27:09;;;;;;;6.67;2.10;;;9.80;99.90;;;;;;5019324;28;20204;-85
2023/03/13 07:29:36;;;;;;;2.43;1.70;;;9.90;99.90;;;;;;5017606;28;20247;-84
2023/03/13 07:32:03;;;;;;;2.53;1.80;;;9.90;99.90;;;;;;5026554;28;20216;-83
2023/03/13 07:34:32;;;;;;;4.03;1.53;;;10.00;99.90;;;;;;5035453;28;20299;-84
2023/03/13 07:36:58;;;;;;;2.13;1.50;;;10.40;99.90;;;;;;5024206;28;20232;-84
2023/03/13 07:39:25;;;;;;;3.93;1.80;;;10.40;99.90;;;;;;5021414;28;20215;-84
2023/03/13 07:41:52;;;;;;;2.00;1.60;;;10.50;99.90;;;;;;5018760;28;20311;-83
2023/03/13 07:44:19;;;;;;;3.63;1.40;;;10.50;99.90;;;;;;5021911;28;20228;-83
2023/03/13 07:46:47;;;;;;;5.53;1.67;;;10.70;99.90;;;;;;5019710;28;20207;-83
2023/03/13 07:49:14;;;;;;;2.63;1.50;;;10.60;99.90;;;;;;5020296;28;20215;-84
2023/03/13 07:51:42;;;;;;;1.00;0.93;;;10.70;99.90;;;;;;5019216;28;20225;-84
2023/03/13 07:54:09;;;;;;;3.13;1.93;;;10.80;99.90;;;;;;5019682;28;20208;-84
2023/03/13 07:56:35;;;;;;;1.20;1.10;;;10.90;99.90;;;;;;5019935;28;20295;-85
2023/03/13 07:59:02;;;;;;;1.57;1.30;;;10.90;99.90;;;;;;5014723;28;20205;-84
2023/03/13 08:01:29;;;;;;;2.03;1.30;;;11.00;99.90;;;;;;5008713;28;20683;-83
2023/03/13 08:03:57;;;;;;;2.97;1.60;;;10.90;99.90;;;;;;5038262;28;20279;-84
2023/03/13 08:06:25;;;;;;;3.33;1.50;;;10.90;99.90;;;;;;5039576;28;20203;-84
2023/03/13 08:08:56;;;;;;;1.63;1.40;;;10.90;99.90;;;;;;5027561;28;20604;-84
2023/03/13 08:11:25;;;;;;;4.50;1.50;;;10.70;99.90;;;;;;5018505;28;20224;-84
2023/03/13 08:13:52;;;;;;;2.90;1.30;;;10.80;99.90;;;;;;5020349;28;20287;-83
2023/03/13 08:16:21;;;;;;;2.57;1.63;;;10.80;99.90;;;;;;5018650;28;20291;-84
2023/03/13 08:18:50;;;;;;;2.37;1.33;;;10.80;99.90;;;;;;5019760;28;20327;-84
2023/03/13 08:21:19;;;;;;;3.23;1.50;;;10.80;99.90;;;;;;5019474;28;20308;-85
2023/03/13 08:23:46;;;;;;;1.97;1.80;;;10.70;99.90;;;;;;5019845;28;20581;-84
2023/03/13 08:26:16;;;;;;;3.10;1.20;;;10.90;99.90;;;;;;5018107;28;20210;-83
2023/03/13 08:28:44;;;;;;;2.00;1.43;;;10.80;99.90;;;;;;5016441;28;20208;-84
2023/03/13 08:31:14;;;;;;;3.03;1.73;;;10.80;99.90;;;;;;5019690;28;20236;-84
2023/03/13 08:33:43;;;;;;;2.43;1.77;;;10.90;99.90;;;;;;5019695;28;20211;-84
2023/03/13 08:36:16;;;;;;;2.47;1.40;;;11.00;99.90;;;;;;5019014;28;20652;-84
2023/03/13 08:38:43;;;;;;;1.87;1.47;;;11.00;99.90;;;;;;5017957;28;20204;-83
2023/03/13 08:41:11;;;;;;;2.00;1.60;;;11.00;99.90;;;;;;5017157;28;20292;-84
2023/03/13 08:43:39;;;;;;;2.80;1.60;;;11.00;99.90;;;;;;5016374;28;20232;-84
2023/03/13 08:46:06;;;;;;;9.73;1.57;;;11.10;99.90;;;;;;5016403;28;20212;-85
2023/03/13 08:48:32;;;;;;;1.90;1.63;;;11.20;99.90;;;;;;5009295;28;20209;-85
2023/03/13 08:51:02;;;;;;;3.47;1.73;;;11.30;99.90;;;;;;5016881;28;20238;-84
2023/03/13 08:53:29;;;;;;;4.13;2.00;;;11.40;99.90;;;;;;5016545;28;20270;-83
2023/03/13 08:55:56;;;;;;;1.50;1.27;;;11.50;99.90;;;;;;5026648;28;20257;-83
2023/03/13 08:58:23;;;;;;;4.20;1.40;;;11.50;99.90;;;;;;5030287;28;20574;-85
2023/03/13 09:00:51;;;;;;;1.57;1.33;;;11.70;99.90;;;;;;5025507;28;20220;-83
2023/03/13 09:03:18;;;;;;;4.27;1.80;;;11.70;99.90;;;;;;5017067;28;20223;-84
2023/03/13 09:05:46;;;;;;;2.17;1.70;;;11.70;99.90;;;;;;5017104;28;20532;-84
2023/03/13 09:08:14;;;;;;;1.70;1.50;;;11.70;99.90;;;;;;5017259;28;20240;-85
2023/03/13 09:10:40;;;;;;;2.87;1.80;;;11.70;99.90;;;;;;5016491;28;20311;-84
2023/03/13 09:13:07;;;;;;;2.03;1.30;;;11.70;99.90;;;;;;5018065;28;20672;-85
2023/03/13 09:15:34;;;;;;;3.23;1.50;;;11.80;99.90;;;;;;5018692;28;20204;-83
2023/03/13 09:18:02;;;;;;;3.07;1.60;;;11.90;99.90;;;;;;5016469;28;20218;-83
2023/03/13 09:20:29;;;;;;;3.23;1.40;;;11.90;99.90;;;;;;5018346;28;20224;-83
2023/03/13 09:22:56;;;;;;;2.83;1.67;;;12.00;99.90;;;;;;5018198;28;20288;-84
2023/03/13 09:25:23;;;;;;;3.23;2.20;;;12.10;99.90;;;;;;5017067;28;20230;-84
2023/03/13 09:27:49;;;;;;;2.13;1.40;;;12.10;99.90;;;;;;5017837;28;20200;-83
2023/03/13 09:30:17;;;;;;;4.13;1.53;;;12.10;99.90;;;;;;5017873;28;20208;-84
2023/03/13 09:32:44;;;;;;;1.80;1.27;;;12.20;99.90;;;;;;5018360;28;20641;-83
2023/03/13 09:35:12;;;;;;;4.73;1.50;;;12.20;99.90;;;;;;5016810;28;20292;-85
2023/03/13 09:37:38;;;;;;;1.80;1.63;;;12.20;99.90;;;;;;5017143;28;20204;-85
2023/03/13 09:40:09;;;;;;;3.20;1.77;;;12.30;99.90;;;;;;5015915;28;20204;-84
2023/03/13 09:42:44;;;;;;;5.80;1.77;;;12.40;99.90;;;;;;5017011;28;20626;-84
2023/03/13 09:45:16;;;;;;;2.13;1.70;;;12.50;99.90;;;;;;5016341;28;20679;-85
2023/03/13 09:47:46;;;;;;;3.60;1.70;;;12.50;99.90;;;;;;5017898;28;20653;-83
2023/03/13 09:50:19;;;;;;;1.50;1.40;;;12.60;99.90;;;;;;5016447;28;20292;-84
2023/03/13 09:52:51;;;;;;;3.80;1.40;;;12.60;99.90;;;;;;5017312;28;20555;-83
2023/03/13 09:55:21;;;;;;;2.20;1.37;;;12.70;99.90;;;;;;5018550;28;20291;-84
2023/03/13 09:57:54;;;;;;;2.60;1.67;;;12.70;99.90;;;;;;5020650;28;20208;-84
2023/03/13 10:00:25;;;;;;;4.73;1.80;;;12.70;99.90;;;;;;5022392;28;20201;-84
2023/03/13 10:02:56;;;;;;;1.80;1.20;;;12.80;99.90;;;;;;5021778;28;20297;-84
2023/03/13 10:05:26;;;;;;;1.93;1.73;;;12.80;99.90;;;;;;5021449;28;20246;-84
2023/03/13 10:07:58;;;;;;;1.57;1.47;;;12.80;99.90;;;;;;5022727;28;20228;-84
2023/03/13 10:10:35;;;;;;;2.50;1.20;;;13.00;99.90;;;;;;5021045;28;20227;-84
2023/03/13 10:13:11;;;;;;;2.90;1.80;;;13.10;99.90;;;;;;5022202;28;20656;-84
2023/03/13 10:15:44;;;;;;;3.93;1.70;;;13.10;99.90;;;;;;5021570;28;20194;-84
2023/03/13 10:18:16;;;;;;;5.47;1.60;;;13.20;99.90;;;;;;5020327;28;20215;-83
2023/03/13 10:20:47;;;;;;;2.20;1.43;;;13.30;99.90;;;;;;5022277;28;20232;-84
2023/03/13 10:23:18;;;;;;;4.10;1.50;;;13.40;99.90;;;;;;5022219;28;20291;-84
2023/03/13 10:25:45;;;;;;;3.40;1.50;;;13.40;99.90;;;;;;5021307;28;20593;-84
2023/03/13 10:28:14;;;;;;;3.90;1.47;;;13.40;99.90;;;;;;5021757;28;20284;-84
2023/03/13 10:30:46;;;;;;;3.57;1.77;;;13.40;99.90;;;;;;5021217;28;20232;-84
2023/03/13 10:33:22;;;;;;;3.73;1.57;;;13.30;99.90;;;;;;5021684;28;20219;-84
2023/03/13 10:36:02;;;;;;;4.53;1.77;;;13.30;99.90;;;;;;5016331;28;20224;-83
2023/03/13 10:38:32;;;;;;;3.07;1.67;;;13.20;99.90;;;;;;5024409;28;20253;-84
2023/03/13 10:41:01;;;;;;;3.03;1.50;;;13.40;99.90;;;;;;5008235;28;20227;-84
2023/03/13 10:43:29;;;;;;;2.00;1.33;;;13.30;99.90;;;;;;5011242;28;20291;-83
2023/03/13 10:45:56;;;;;;;3.70;2.13;;;13.30;99.90;;;;;;5016583;28;20216;-83
2023/03/13 10:48:25;;;;;;;1.70;1.60;;;13.30;99.90;;;;;;5018743;28;20665;-84
2023/03/13 10:50:56;;;;;;;2.00;1.83;;;13.30;99.90;;;;;;5034940;28;20258;-84
2023/03/13 10:53:32;;;;;;;2.60;1.70;;;13.40;99.90;;;;;;5031469;28;20215;-86
2023/03/13 10:56:09;;;;;;;3.70;1.87;;;13.50;99.90;;;;;;5019281;28;20200;-84
2023/03/13 10:58:41;;;;;;;2.53;2.23;;;13.70;99.90;;;;;;5026500;28;20196;-84
2023/03/13 11:01:18;;;;;;;2.60;1.93;;;13.90;99.90;;;;;;5022248;28;20229;-83
2023/03/13 11:03:46;;;;;;;4.77;2.30;;;14.20;99.90;;;;;;5038278;28;20286;-83
2023/03/13 11:06:30;;;;;;;6.80;2.13;;;14.50;99.90;;;;;;5032611;28;20219;-83
2023/03/13 11:09:08;;;;;;;4.67;1.60;;;14.70;99.90;;;;;;5034880;28;20223;-83
2023/03/13 11:11:45;;;;;;;2.47;1.83;;;14.70;99.90;;;;;;5028042;28;20228;-83
2023/03/13 11:14:16;;;;;;;2.83;1.73;;;15.00;99.90;;;;;;5017702;28;20208;-83
2023/03/13 11:16:48;;;;;;;3.83;1.93;;;15.10;99.90;;;;;;5028101;28;20207;-83
2023/03/13 11:19:30;;;;;;;2.17;1.70;;;15.30;99.90;;;;;;5039121;28;20591;-83
2023/03/13 11:22:21;;;;;;;3.03;2.13;;;15.20;99.90;;;;;;5036970;28;20302;-84
2023/03/13 11:24:59;;;;;;;2.63;1.70;;;15.30;99.90;;;;;;5039384;28;20303;-84
2023/03/13 11:27:35;;;;;;;5.53;1.93;;;15.20;99.90;;;;;;5000988;28;20592;-83
2023/03/13 11:30:16;;;;;;;5.47;2.10;;;15.20;99.90;;;;;;4998586;28;20665;-83
2023/03/13 11:32:45;;;;;;;4.93;2.23;;;15.30;99.90;;;;;;5002036;28;20603;-83
2023/03/13 11:35:29;;;;;;;2.87;1.67;;;15.40;99.90;;;;;;5017373;28;20219;-84
2023/03/13 11:37:57;;;;;;;3.38;1.60;;;15.80;99.90;;;;;;5017984;28;20215;-84
2023/03/13 11:40:30;;;;;;;3.15;1.75;;;16.10;99.90;;;;;;5019969;28;20212;-84
2023/03/13 11:43:26;;;;;;;3.50;2.28;;;15.80;99.90;;;;;;5020462;28;20208;-85
2023/03/13 11:46:19;;;;;;;3.50;1.70;;;15.80;99.90;;;;;;5019228;28;20223;-84
2023/03/13 11:48:58;;;;;;;2.70;1.55;;;15.80;99.90;;;;;;5018675;28;20212;-85
2023/03/13 11:51:33;;;;;;;4.10;2.13;;;16.10;99.90;;;;;;5018481;28;20227;-84
2023/03/13 11:54:22;;;;;;;3.78;2.45;;;16.20;99.90;;;;;;5014517;28;20296;-83
2023/03/13 11:56:55;;;;;;;2.88;1.90;;;16.00;99.90;;;;;;4998639;28;20666;-84
2023/03/13 11:59:38;;;;;;;3.72;2.13;;;16.10;99.90;;;;;;4998137;28;20196;-83
2023/03/13 12:02:17;;;;;;;2.67;1.77;;;16.20;99.90;;;;;;5017314;28;20314;-84
2023/03/13 12:04:48;;;;;;;3.47;1.77;;;16.50;99.90;;;;;;5019211;28;20220;-84
2023/03/13 12:07:22;;;;;;;3.67;1.80;;;16.80;99.90;;;;;;5015351;28;20711;-85
2023/03/13 12:09:54;;;;;;;2.28;1.77;;;16.60;99.90;;;;;;5010586;28;20555;-84
2023/03/13 12:12:33;;;;;;;4.40;2.03;;;16.30;99.90;;;;;;4999729;28;20217;-83
2023/03/13 12:15:08;;;;;;;3.75;2.33;;;16.60;99.90;;;;;;4998687;28;20328;-84
2023/03/13 12:17:37;;;;;;;1.63;1.52;;;16.60;99.90;;;;;;4998709;28;20979;-83
2023/03/13 12:20:10;;;;;;;3.90;1.50;;;16.70;99.90;;;;;;5000123;28;20201;-83
2023/03/13 12:22:42;;;;;;;1.73;1.63;;;16.50;99.90;;;;;;4999146;28;20618;-83
2023/03/13 12:25:17;;;;;;;3.28;1.90;;;16.30;99.90;;;;;;5007591;28;20217;-84
2023/03/13 12:27:51;;;;;;;3.78;1.95;;;16.40;99.90;;;;;;5001570;28;20231;-84
2023/03/13 12:30:25;;;;;;;2.10;1.90;;;16.50;99.90;;;;;;5037752;28;20710;-85
2023/03/13 12:33:02;;;;;;;1.83;1.73;;;16.60;99.90;;;;;;5022249;28;20290;-83
2023/03/13 12:35:32;;;;;;;1.90;1.80;;;16.50;99.90;;;;;;5019342;28;20267;-83
2023/03/13 12:38:06;;;;;;;2.00;1.70;;;17.20;99.90;;;;;;5008886;28;20291;-84
2023/03/13 12:40:38;;;;;;;4.10;2.15;;;17.60;99.90;;;;;;5017873;28;20314;-84
2023/03/13 12:43:14;;;;;;;3.58;1.52;;;17.50;99.90;;;;;;5023675;28;20728;-84
2023/03/13 12:45:55;;;;;;;1.67;1.58;;;17.20;99.90;;;;;;5036950;28;20219;-84
2023/03/13 12:48:42;;;;;;;3.28;1.80;;;17.10;99.90;;;;;;5039402;28;20203;-83
2023/03/13 12:51:26;;;;;;;3.53;1.58;;;17.30;99.90;;;;;;5037220;28;20298;-84
2023/03/13 12:54:26;;;;;;;2.80;1.30;;;17.30;99.90;;;;;;5041814;28;20263;-84
2023/03/13 12:57:32;;;;;;;2.40;1.48;;;17.80;99.90;;;;;;5041096;28;20232;-84
2023/03/13 13:00:04;;;;;;;3.75;1.35;;;17.60;99.90;;;;;;5025692;28;20196;-84